Midas, Nevada
Current Conditions -  °F | °C
As of 4:56 PM on Sunday 23 Nov 2014 (Local Time) from KWMC Reporting Station
Clear Clear  
Wind Chill: 30°   Ceiling: Unl
Heat Index: 35°   Visibility: 10mi
Dew Point: 26°   Wind: 6mph
Humidity: 70%   Direction: 160°SSE
Pressure: 30.3"   Gusts: NA
Location:  41.013°N, 117.293°W
Report Text: KWMC 240056Z AUTO 16005KT 10SM CLR 02/M03 A3030 RMK AO2 SLP280 T00171033
Loading
Personal Weather Stations






























Interactive Weather Map New forecast layout! Learn more

10-Day Weather Forecast

Advertisements
Track Severe Weather on mobile